sensor_id;sensor_type;location;lat;lon;timestamp;temperature;humidity
6244;DHT22;3155;49.940;8.450;2022-08-19T00:01:44;20.40;99.90
6244;DHT22;3155;49.940;8.450;2022-08-19T00:04:22;20.40;99.90
6244;DHT22;3155;49.940;8.450;2022-08-19T00:06:51;20.50;99.90
6244;DHT22;3155;49.940;8.450;2022-08-19T00:09:19;20.40;99.90
6244;DHT22;3155;49.940;8.450;2022-08-19T00:11:50;20.30;99.90
6244;DHT22;3155;49.940;8.450;2022-08-19T00:14:17;20.20;99.90
6244;DHT22;3155;49.940;8.450;2022-08-19T00:16:46;20.20;99.90
6244;DHT22;3155;49.940;8.450;2022-08-19T00:19:15;20.20;99.90
6244;DHT22;3155;49.940;8.450;2022-08-19T00:21:42;20.00;99.90
6244;DHT22;3155;49.940;8.450;2022-08-19T00:24:11;20.00;99.90
6244;DHT22;3155;49.940;8.450;2022-08-19T00:26:39;20.00;99.90
6244;DHT22;3155;49.940;8.450;2022-08-19T00:29:10;19.90;99.90
6244;DHT22;3155;49.940;8.450;2022-08-19T00:31:41;19.90;99.90
6244;DHT22;3155;49.940;8.450;2022-08-19T00:34:10;20.00;99.90
6244;DHT22;3155;49.940;8.450;2022-08-19T00:36:39;20.00;99.90
6244;DHT22;3155;49.940;8.450;2022-08-19T00:39:06;20.10;99.90
6244;DHT22;3155;49.940;8.450;2022-08-19T00:41:33;20.10;99.90
6244;DHT22;3155;49.940;8.450;2022-08-19T00:44:11;20.20;99.90
6244;DHT22;3155;49.940;8.450;2022-08-19T00:46:41;20.20;99.90
6244;DHT22;3155;49.940;8.450;2022-08-19T00:49:16;20.30;99.90
6244;DHT22;3155;49.940;8.450;2022-08-19T00:51:47;20.40;99.90
6244;DHT22;3155;49.940;8.450;2022-08-19T00:54:15;20.40;99.90
6244;DHT22;3155;49.940;8.450;2022-08-19T00:56:42;20.50;99.90
6244;DHT22;3155;49.940;8.450;2022-08-19T00:59:11;20.50;99.90
6244;DHT22;3155;49.940;8.450;2022-08-19T01:01:58;20.50;99.90
6244;DHT22;3155;49.940;8.450;2022-08-19T01:04:25;20.50;99.90
6244;DHT22;3155;49.940;8.450;2022-08-19T01:06:52;20.50;99.90
6244;DHT22;3155;49.940;8.450;2022-08-19T01:09:19;20.50;99.90
6244;DHT22;3155;49.940;8.450;2022-08-19T01:11:46;20.50;99.90
6244;DHT22;3155;49.940;8.450;2022-08-19T01:14:14;20.50;99.90
6244;DHT22;3155;49.940;8.450;2022-08-19T01:16:42;20.40;99.90
6244;DHT22;3155;49.940;8.450;2022-08-19T01:19:15;20.40;99.90
6244;DHT22;3155;49.940;8.450;2022-08-19T01:24:42;20.50;99.90
6244;DHT22;3155;49.940;8.450;2022-08-19T01:27:18;20.60;99.90
6244;DHT22;3155;49.940;8.450;2022-08-19T01:29:46;20.60;99.90
6244;DHT22;3155;49.940;8.450;2022-08-19T01:32:15;20.60;99.90
6244;DHT22;3155;49.940;8.450;2022-08-19T01:35:00;20.60;99.90
6244;DHT22;3155;49.940;8.450;2022-08-19T01:37:28;20.60;99.90
6244;DHT22;3155;49.940;8.450;2022-08-19T01:39:56;20.60;99.90
6244;DHT22;3155;49.940;8.450;2022-08-19T01:42:23;20.60;99.90
6244;DHT22;3155;49.940;8.450;2022-08-19T01:44:56;20.60;99.90
6244;DHT22;3155;49.940;8.450;2022-08-19T01:47:23;20.50;99.90
6244;DHT22;3155;49.940;8.450;2022-08-19T01:49:50;20.50;99.90
6244;DHT22;3155;49.940;8.450;2022-08-19T01:52:17;20.40;99.90
6244;DHT22;3155;49.940;8.450;2022-08-19T01:54:47;20.40;99.90
6244;DHT22;3155;49.940;8.450;2022-08-19T01:57:16;20.40;99.90
6244;DHT22;3155;49.940;8.450;2022-08-19T01:59:44;20.30;99.90
6244;DHT22;3155;49.940;8.450;2022-08-19T02:02:11;20.30;99.90
6244;DHT22;3155;49.940;8.450;2022-08-19T02:04:39;20.20;99.90
6244;DHT22;3155;49.940;8.450;2022-08-19T02:07:07;20.20;99.90
6244;DHT22;3155;49.940;8.450;2022-08-19T02:09:35;20.20;99.90
6244;DHT22;3155;49.940;8.450;2022-08-19T02:12:05;20.20;99.90
6244;DHT22;3155;49.940;8.450;2022-08-19T02:14:34;20.10;99.90
6244;DHT22;3155;49.940;8.450;2022-08-19T02:17:01;20.10;99.90
6244;DHT22;3155;49.940;8.450;2022-08-19T02:19:31;20.10;99.90
6244;DHT22;3155;49.940;8.450;2022-08-19T02:21:59;20.10;99.90
6244;DHT22;3155;49.940;8.450;2022-08-19T02:24:27;20.10;99.90
6244;DHT22;3155;49.940;8.450;2022-08-19T02:26:54;20.20;99.90
6244;DHT22;3155;49.940;8.450;2022-08-19T02:29:21;20.10;99.90
6244;DHT22;3155;49.940;8.450;2022-08-19T02:31:47;20.10;99.90
6244;DHT22;3155;49.940;8.450;2022-08-19T02:34:14;20.10;99.90
6244;DHT22;3155;49.940;8.450;2022-08-19T02:36:41;20.20;99.90
6244;DHT22;3155;49.940;8.450;2022-08-19T02:39:09;20.10;99.90
6244;DHT22;3155;49.940;8.450;2022-08-19T02:41:36;20.10;99.90
6244;DHT22;3155;49.940;8.450;2022-08-19T02:44:03;20.10;99.90
6244;DHT22;3155;49.940;8.450;2022-08-19T02:46:53;20.20;99.90
6244;DHT22;3155;49.940;8.450;2022-08-19T02:49:20;20.30;99.90
6244;DHT22;3155;49.940;8.450;2022-08-19T02:51:47;20.20;99.90
6244;DHT22;3155;49.940;8.450;2022-08-19T02:54:14;20.30;99.90
6244;DHT22;3155;49.940;8.450;2022-08-19T02:56:42;20.30;99.90
6244;DHT22;3155;49.940;8.450;2022-08-19T02:59:09;20.30;99.90
6244;DHT22;3155;49.940;8.450;2022-08-19T03:01:39;20.30;99.90
6244;DHT22;3155;49.940;8.450;2022-08-19T03:04:08;20.30;99.90
6244;DHT22;3155;49.940;8.450;2022-08-19T03:06:37;20.30;99.90
6244;DHT22;3155;49.940;8.450;2022-08-19T03:09:07;20.20;99.90
6244;DHT22;3155;49.940;8.450;2022-08-19T03:11:34;20.20;99.90
6244;DHT22;3155;49.940;8.450;2022-08-19T03:14:03;20.20;99.90
6244;DHT22;3155;49.940;8.450;2022-08-19T03:16:34;20.10;99.90
6244;DHT22;3155;49.940;8.450;2022-08-19T03:19:01;20.10;99.90
6244;DHT22;3155;49.940;8.450;2022-08-19T03:21:33;20.10;99.90
6244;DHT22;3155;49.940;8.450;2022-08-19T03:24:06;20.00;99.90
6244;DHT22;3155;49.940;8.450;2022-08-19T03:26:33;20.10;99.90
6244;DHT22;3155;49.940;8.450;2022-08-19T03:29:04;20.00;99.90
6244;DHT22;3155;49.940;8.450;2022-08-19T03:31:31;19.90;99.90
6244;DHT22;3155;49.940;8.450;2022-08-19T03:34:26;19.90;99.90
6244;DHT22;3155;49.940;8.450;2022-08-19T03:36:56;19.90;99.90
6244;DHT22;3155;49.940;8.450;2022-08-19T03:39:24;19.90;99.90
6244;DHT22;3155;49.940;8.450;2022-08-19T03:41:54;19.90;99.90
6244;DHT22;3155;49.940;8.450;2022-08-19T03:44:43;19.80;99.90
6244;DHT22;3155;49.940;8.450;2022-08-19T03:47:11;19.70;99.90
6244;DHT22;3155;49.940;8.450;2022-08-19T03:49:42;19.70;99.90
6244;DHT22;3155;49.940;8.450;2022-08-19T03:52:09;19.60;99.90
6244;DHT22;3155;49.940;8.450;2022-08-19T03:54:37;19.60;99.90
6244;DHT22;3155;49.940;8.450;2022-08-19T03:57:09;19.50;99.90
6244;DHT22;3155;49.940;8.450;2022-08-19T03:59:38;19.50;99.90
6244;DHT22;3155;49.940;8.450;2022-08-19T04:02:11;19.50;99.90
6244;DHT22;3155;49.940;8.450;2022-08-19T04:04:39;19.50;99.90
6244;DHT22;3155;49.940;8.450;2022-08-19T04:07:10;19.50;99.90
6244;DHT22;3155;49.940;8.450;2022-08-19T04:09:37;19.50;99.90
6244;DHT22;3155;49.940;8.450;2022-08-19T04:12:05;19.60;99.90
6244;DHT22;3155;49.940;8.450;2022-08-19T04:14:32;19.70;99.90
6244;DHT22;3155;49.940;8.450;2022-08-19T04:17:02;19.70;99.90
6244;DHT22;3155;49.940;8.450;2022-08-19T04:19:33;19.70;99.90
6244;DHT22;3155;49.940;8.450;2022-08-19T04:22:00;19.60;99.90
6244;DHT22;3155;49.940;8.450;2022-08-19T04:24:27;19.60;99.90
6244;DHT22;3155;49.940;8.450;2022-08-19T04:26:58;19.60;99.90
6244;DHT22;3155;49.940;8.450;2022-08-19T04:29:28;19.60;99.90
6244;DHT22;3155;49.940;8.450;2022-08-19T04:31:57;19.50;99.90
6244;DHT22;3155;49.940;8.450;2022-08-19T04:34:26;19.50;99.90
6244;DHT22;3155;49.940;8.450;2022-08-19T04:36:55;19.40;99.90
6244;DHT22;3155;49.940;8.450;2022-08-19T04:39:28;19.30;99.90
6244;DHT22;3155;49.940;8.450;2022-08-19T04:42:17;19.30;99.90
6244;DHT22;3155;49.940;8.450;2022-08-19T04:45:03;19.30;99.90
6244;DHT22;3155;49.940;8.450;2022-08-19T04:47:35;19.20;99.90
6244;DHT22;3155;49.940;8.450;2022-08-19T04:50:26;19.20;99.90
6244;DHT22;3155;49.940;8.450;2022-08-19T04:52:53;19.20;99.90
6244;DHT22;3155;49.940;8.450;2022-08-19T04:55:27;19.30;99.90
6244;DHT22;3155;49.940;8.450;2022-08-19T04:57:54;19.30;99.90
6244;DHT22;3155;49.940;8.450;2022-08-19T05:00:21;19.40;99.90
6244;DHT22;3155;49.940;8.450;2022-08-19T05:02:50;19.40;99.90
6244;DHT22;3155;49.940;8.450;2022-08-19T05:05:18;19.50;99.90
6244;DHT22;3155;49.940;8.450;2022-08-19T05:07:45;19.60;99.90
6244;DHT22;3155;49.940;8.450;2022-08-19T05:10:12;19.70;99.90
6244;DHT22;3155;49.940;8.450;2022-08-19T05:12:40;19.80;99.90
6244;DHT22;3155;49.940;8.450;2022-08-19T05:15:07;19.90;99.90
6244;DHT22;3155;49.940;8.450;2022-08-19T05:17:37;20.00;99.90
6244;DHT22;3155;49.940;8.450;2022-08-19T05:20:26;20.20;99.90
6244;DHT22;3155;49.940;8.450;2022-08-19T05:23:12;20.30;99.90
6244;DHT22;3155;49.940;8.450;2022-08-19T05:25:48;20.40;99.90
6244;DHT22;3155;49.940;8.450;2022-08-19T05:28:20;20.50;99.90
6244;DHT22;3155;49.940;8.450;2022-08-19T05:30:48;20.80;99.90
6244;DHT22;3155;49.940;8.450;2022-08-19T05:33:18;20.90;99.90
6244;DHT22;3155;49.940;8.450;2022-08-19T05:35:44;21.00;99.90
6244;DHT22;3155;49.940;8.450;2022-08-19T05:38:12;21.10;99.90
6244;DHT22;3155;49.940;8.450;2022-08-19T05:40:39;21.30;99.90
6244;DHT22;3155;49.940;8.450;2022-08-19T05:43:07;21.40;99.90
6244;DHT22;3155;49.940;8.450;2022-08-19T05:45:38;21.60;99.90
6244;DHT22;3155;49.940;8.450;2022-08-19T05:48:06;21.70;99.90
6244;DHT22;3155;49.940;8.450;2022-08-19T05:50:34;21.80;99.90
6244;DHT22;3155;49.940;8.450;2022-08-19T05:53:01;22.00;99.90
6244;DHT22;3155;49.940;8.450;2022-08-19T05:55:28;22.20;99.90
6244;DHT22;3155;49.940;8.450;2022-08-19T05:57:55;22.50;99.90
6244;DHT22;3155;49.940;8.450;2022-08-19T06:00:22;22.70;99.90
6244;DHT22;3155;49.940;8.450;2022-08-19T06:02:50;23.00;99.90
6244;DHT22;3155;49.940;8.450;2022-08-19T06:05:17;23.40;99.90
6244;DHT22;3155;49.940;8.450;2022-08-19T06:07:49;23.80;99.90
6244;DHT22;3155;49.940;8.450;2022-08-19T06:10:16;23.80;99.90
6244;DHT22;3155;49.940;8.450;2022-08-19T06:12:43;23.70;99.90
6244;DHT22;3155;49.940;8.450;2022-08-19T06:15:12;23.70;99.90
6244;DHT22;3155;49.940;8.450;2022-08-19T06:17:40;24.00;99.90
6244;DHT22;3155;49.940;8.450;2022-08-19T06:20:12;24.20;99.90
6244;DHT22;3155;49.940;8.450;2022-08-19T06:22:47;24.40;99.90
6244;DHT22;3155;49.940;8.450;2022-08-19T06:25:18;24.30;99.90
6244;DHT22;3155;49.940;8.450;2022-08-19T06:27:45;24.20;99.90
6244;DHT22;3155;49.940;8.450;2022-08-19T06:30:32;24.20;99.90
6244;DHT22;3155;49.940;8.450;2022-08-19T06:33:01;24.50;99.90
6244;DHT22;3155;49.940;8.450;2022-08-19T06:35:29;24.90;99.90
6244;DHT22;3155;49.940;8.450;2022-08-19T06:37:56;24.90;99.90
6244;DHT22;3155;49.940;8.450;2022-08-19T06:40:24;25.00;99.90
6244;DHT22;3155;49.940;8.450;2022-08-19T06:42:50;25.20;99.90
6244;DHT22;3155;49.940;8.450;2022-08-19T06:45:21;25.40;99.90
6244;DHT22;3155;49.940;8.450;2022-08-19T06:47:51;25.50;99.90
6244;DHT22;3155;49.940;8.450;2022-08-19T06:50:25;25.30;99.90
6244;DHT22;3155;49.940;8.450;2022-08-19T06:52:52;25.40;99.90
6244;DHT22;3155;49.940;8.450;2022-08-19T06:55:19;25.40;99.90
6244;DHT22;3155;49.940;8.450;2022-08-19T06:57:46;25.70;99.90
6244;DHT22;3155;49.940;8.450;2022-08-19T07:00:14;25.90;99.90
6244;DHT22;3155;49.940;8.450;2022-08-19T07:02:45;26.20;99.90
6244;DHT22;3155;49.940;8.450;2022-08-19T07:05:21;26.30;99.90
6244;DHT22;3155;49.940;8.450;2022-08-19T07:07:48;26.30;99.90
6244;DHT22;3155;49.940;8.450;2022-08-19T07:10:16;26.40;99.90
6244;DHT22;3155;49.940;8.450;2022-08-19T07:12:43;26.40;99.90
6244;DHT22;3155;49.940;8.450;2022-08-19T07:15:11;26.50;99.90
6244;DHT22;3155;49.940;8.450;2022-08-19T07:17:40;26.80;99.90
6244;DHT22;3155;49.940;8.450;2022-08-19T07:20:08;27.10;99.90
6244;DHT22;3155;49.940;8.450;2022-08-19T07:22:37;27.40;99.90
6244;DHT22;3155;49.940;8.450;2022-08-19T07:25:07;27.10;99.90
6244;DHT22;3155;49.940;8.450;2022-08-19T07:27:34;26.80;99.90
6244;DHT22;3155;49.940;8.450;2022-08-19T07:30:01;26.50;99.90
6244;DHT22;3155;49.940;8.450;2022-08-19T07:32:28;26.50;99.90
6244;DHT22;3155;49.940;8.450;2022-08-19T07:34:59;26.40;99.90
6244;DHT22;3155;49.940;8.450;2022-08-19T07:37:27;26.10;99.90
6244;DHT22;3155;49.940;8.450;2022-08-19T07:40:05;26.20;99.90
6244;DHT22;3155;49.940;8.450;2022-08-19T07:42:32;26.50;99.90
6244;DHT22;3155;49.940;8.450;2022-08-19T07:45:03;26.60;99.90
6244;DHT22;3155;49.940;8.450;2022-08-19T07:47:30;26.80;99.90
6244;DHT22;3155;49.940;8.450;2022-08-19T07:50:19;26.80;99.90
6244;DHT22;3155;49.940;8.450;2022-08-19T07:52:47;26.90;99.90
6244;DHT22;3155;49.940;8.450;2022-08-19T07:55:23;27.20;99.90
6244;DHT22;3155;49.940;8.450;2022-08-19T07:58:11;27.40;99.90
6244;DHT22;3155;49.940;8.450;2022-08-19T08:00:39;27.40;99.90
6244;DHT22;3155;49.940;8.450;2022-08-19T08:03:05;27.30;99.90
6244;DHT22;3155;49.940;8.450;2022-08-19T08:05:32;27.20;99.90
6244;DHT22;3155;49.940;8.450;2022-08-19T08:08:35;27.40;99.90
6244;DHT22;3155;49.940;8.450;2022-08-19T08:11:21;27.30;99.90
6244;DHT22;3155;49.940;8.450;2022-08-19T08:13:49;27.30;99.90
6244;DHT22;3155;49.940;8.450;2022-08-19T08:16:34;27.60;99.90
6244;DHT22;3155;49.940;8.450;2022-08-19T08:19:14;27.70;99.90
6244;DHT22;3155;49.940;8.450;2022-08-19T08:21:52;27.60;99.90
6244;DHT22;3155;49.940;8.450;2022-08-19T08:24:19;27.60;99.90
6244;DHT22;3155;49.940;8.450;2022-08-19T08:26:46;27.70;99.90
6244;DHT22;3155;49.940;8.450;2022-08-19T08:29:23;27.80;99.90
6244;DHT22;3155;49.940;8.450;2022-08-19T08:31:51;28.20;99.90
6244;DHT22;3155;49.940;8.450;2022-08-19T08:34:25;28.50;99.90
6244;DHT22;3155;49.940;8.450;2022-08-19T08:36:52;28.70;99.90
6244;DHT22;3155;49.940;8.450;2022-08-19T08:39:20;29.10;99.90
6244;DHT22;3155;49.940;8.450;2022-08-19T08:42:07;29.60;99.90
6244;DHT22;3155;49.940;8.450;2022-08-19T08:44:58;29.50;99.90
6244;DHT22;3155;49.940;8.450;2022-08-19T08:47:28;29.40;99.90
6244;DHT22;3155;49.940;8.450;2022-08-19T08:50:06;29.40;99.90
6244;DHT22;3155;49.940;8.450;2022-08-19T08:52:37;28.70;99.90
6244;DHT22;3155;49.940;8.450;2022-08-19T08:55:16;28.70;99.90
6244;DHT22;3155;49.940;8.450;2022-08-19T09:00:18;28.70;99.90
6244;DHT22;3155;49.940;8.450;2022-08-19T09:02:47;28.50;99.90
6244;DHT22;3155;49.940;8.450;2022-08-19T09:05:17;28.50;99.90
6244;DHT22;3155;49.940;8.450;2022-08-19T09:08:17;28.80;99.90
6244;DHT22;3155;49.940;8.450;2022-08-19T09:10:54;28.80;99.90
6244;DHT22;3155;49.940;8.450;2022-08-19T09:16:21;29.20;99.90
6244;DHT22;3155;49.940;8.450;2022-08-19T09:18:57;29.20;99.90
6244;DHT22;3155;49.940;8.450;2022-08-19T09:21:25;29.10;99.90
6244;DHT22;3155;49.940;8.450;2022-08-19T09:24:00;29.10;99.90
6244;DHT22;3155;49.940;8.450;2022-08-19T09:26:30;29.10;99.90
6244;DHT22;3155;49.940;8.450;2022-08-19T09:29:18;29.00;99.90
6244;DHT22;3155;49.940;8.450;2022-08-19T09:31:48;29.00;99.90
6244;DHT22;3155;49.940;8.450;2022-08-19T09:34:15;29.00;99.90
6244;DHT22;3155;49.940;8.450;2022-08-19T09:36:48;29.30;99.90
6244;DHT22;3155;49.940;8.450;2022-08-19T09:39:22;29.20;99.90
6244;DHT22;3155;49.940;8.450;2022-08-19T09:41:50;29.10;99.90
6244;DHT22;3155;49.940;8.450;2022-08-19T09:44:17;28.80;99.90
6244;DHT22;3155;49.940;8.450;2022-08-19T09:46:45;28.50;99.90
6244;DHT22;3155;49.940;8.450;2022-08-19T09:49:15;28.40;99.90
6244;DHT22;3155;49.940;8.450;2022-08-19T09:51:50;28.40;99.90
6244;DHT22;3155;49.940;8.450;2022-08-19T09:54:19;28.90;99.90
6244;DHT22;3155;49.940;8.450;2022-08-19T09:56:51;29.20;99.90
6244;DHT22;3155;49.940;8.450;2022-08-19T09:59:18;29.10;99.90
6244;DHT22;3155;49.940;8.450;2022-08-19T10:01:44;29.00;99.90
6244;DHT22;3155;49.940;8.450;2022-08-19T10:04:11;28.80;99.90
6244;DHT22;3155;49.940;8.450;2022-08-19T10:06:50;28.20;99.90
6244;DHT22;3155;49.940;8.450;2022-08-19T10:09:20;27.70;99.90
6244;DHT22;3155;49.940;8.450;2022-08-19T10:11:59;27.50;99.90
6244;DHT22;3155;49.940;8.450;2022-08-19T10:14:28;27.70;99.90
6244;DHT22;3155;49.940;8.450;2022-08-19T10:16:55;27.70;99.90
6244;DHT22;3155;49.940;8.450;2022-08-19T10:19:24;27.80;99.90
6244;DHT22;3155;49.940;8.450;2022-08-19T10:21:53;27.90;99.90
6244;DHT22;3155;49.940;8.450;2022-08-19T10:24:26;28.50;99.90
6244;DHT22;3155;49.940;8.450;2022-08-19T10:26:54;29.20;99.90
6244;DHT22;3155;49.940;8.450;2022-08-19T10:29:29;29.00;99.90
6244;DHT22;3155;49.940;8.450;2022-08-19T10:32:04;28.80;99.90
6244;DHT22;3155;49.940;8.450;2022-08-19T10:34:37;28.90;99.90
6244;DHT22;3155;49.940;8.450;2022-08-19T10:37:16;28.90;99.90
6244;DHT22;3155;49.940;8.450;2022-08-19T10:39:49;29.00;99.90
6244;DHT22;3155;49.940;8.450;2022-08-19T10:42:16;29.10;99.80
6244;DHT22;3155;49.940;8.450;2022-08-19T10:44:45;29.30;99.70
6244;DHT22;3155;49.940;8.450;2022-08-19T10:47:13;29.70;99.90
6244;DHT22;3155;49.940;8.450;2022-08-19T10:49:53;30.50;99.00
6244;DHT22;3155;49.940;8.450;2022-08-19T10:52:43;30.50;97.90
6244;DHT22;3155;49.940;8.450;2022-08-19T10:55:20;30.20;98.00
6244;DHT22;3155;49.940;8.450;2022-08-19T10:58:21;30.20;97.80
6244;DHT22;3155;49.940;8.450;2022-08-19T11:00:55;30.20;98.10
6244;DHT22;3155;49.940;8.450;2022-08-19T11:03:22;30.00;97.00
6244;DHT22;3155;49.940;8.450;2022-08-19T11:06:05;30.20;96.70
6244;DHT22;3155;49.940;8.450;2022-08-19T11:08:33;30.40;96.60
6244;DHT22;3155;49.940;8.450;2022-08-19T11:11:02;30.70;96.80
6244;DHT22;3155;49.940;8.450;2022-08-19T11:13:32;30.70;97.00
6244;DHT22;3155;49.940;8.450;2022-08-19T11:16:09;30.80;97.10
6244;DHT22;3155;49.940;8.450;2022-08-19T11:18:57;31.20;97.10
6244;DHT22;3155;49.940;8.450;2022-08-19T11:21:33;32.00;96.00
6244;DHT22;3155;49.940;8.450;2022-08-19T11:24:07;32.30;95.20
6244;DHT22;3155;49.940;8.450;2022-08-19T11:26:35;31.50;95.40
6244;DHT22;3155;49.940;8.450;2022-08-19T11:29:04;30.60;96.10
6244;DHT22;3155;49.940;8.450;2022-08-19T11:31:34;29.80;96.60
6244;DHT22;3155;49.940;8.450;2022-08-19T11:34:04;29.60;97.70
6244;DHT22;3155;49.940;8.450;2022-08-19T11:36:31;30.30;97.00
6244;DHT22;3155;49.940;8.450;2022-08-19T11:39:04;31.00;96.50
6244;DHT22;3155;49.940;8.450;2022-08-19T11:41:30;31.90;95.70
6244;DHT22;3155;49.940;8.450;2022-08-19T11:43:57;32.10;94.30
6244;DHT22;3155;49.940;8.450;2022-08-19T11:46:26;31.80;93.80
6244;DHT22;3155;49.940;8.450;2022-08-19T11:48:59;31.40;94.90
6244;DHT22;3155;49.940;8.450;2022-08-19T11:51:30;31.30;94.60
6244;DHT22;3155;49.940;8.450;2022-08-19T11:53:58;31.50;94.50
6244;DHT22;3155;49.940;8.450;2022-08-19T11:56:26;31.60;94.10
6244;DHT22;3155;49.940;8.450;2022-08-19T11:58:54;31.60;94.20
6244;DHT22;3155;49.940;8.450;2022-08-19T12:01:24;31.40;94.10
6244;DHT22;3155;49.940;8.450;2022-08-19T12:03:53;31.50;94.40
6244;DHT22;3155;49.940;8.450;2022-08-19T12:06:23;32.00;93.90
6244;DHT22;3155;49.940;8.450;2022-08-19T12:08:52;32.40;92.90
6244;DHT22;3155;49.940;8.450;2022-08-19T12:11:18;32.40;92.30
6244;DHT22;3155;49.940;8.450;2022-08-19T12:13:45;32.00;92.80
6244;DHT22;3155;49.940;8.450;2022-08-19T12:16:18;31.60;92.70
6244;DHT22;3155;49.940;8.450;2022-08-19T12:18:45;31.60;93.00
6244;DHT22;3155;49.940;8.450;2022-08-19T12:21:21;32.00;92.40
6244;DHT22;3155;49.940;8.450;2022-08-19T12:23:49;32.50;92.00
6244;DHT22;3155;49.940;8.450;2022-08-19T12:26:22;32.80;92.00
6244;DHT22;3155;49.940;8.450;2022-08-19T12:28:49;32.90;91.00
6244;DHT22;3155;49.940;8.450;2022-08-19T12:31:16;33.00;90.80
6244;DHT22;3155;49.940;8.450;2022-08-19T12:33:43;33.00;90.80
6244;DHT22;3155;49.940;8.450;2022-08-19T12:36:12;32.40;91.20
6244;DHT22;3155;49.940;8.450;2022-08-19T12:38:39;32.60;91.10
6244;DHT22;3155;49.940;8.450;2022-08-19T12:41:09;32.80;90.70
6244;DHT22;3155;49.940;8.450;2022-08-19T12:43:36;32.80;90.30
6244;DHT22;3155;49.940;8.450;2022-08-19T12:46:09;33.20;90.10
6244;DHT22;3155;49.940;8.450;2022-08-19T12:48:37;33.40;89.70
6244;DHT22;3155;49.940;8.450;2022-08-19T12:51:10;33.30;87.20
6244;DHT22;3155;49.940;8.450;2022-08-19T12:53:38;33.40;89.10
6244;DHT22;3155;49.940;8.450;2022-08-19T12:56:07;33.40;89.30
6244;DHT22;3155;49.940;8.450;2022-08-19T12:58:38;33.30;89.30
6244;DHT22;3155;49.940;8.450;2022-08-19T13:01:14;33.10;89.20
6244;DHT22;3155;49.940;8.450;2022-08-19T13:03:49;33.30;87.80
6244;DHT22;3155;49.940;8.450;2022-08-19T13:06:16;33.20;87.30
6244;DHT22;3155;49.940;8.450;2022-08-19T13:08:49;33.00;86.30
6244;DHT22;3155;49.940;8.450;2022-08-19T13:11:18;32.60;86.40
6244;DHT22;3155;49.940;8.450;2022-08-19T13:13:49;32.10;87.50
6244;DHT22;3155;49.940;8.450;2022-08-19T13:16:18;31.90;88.70
6244;DHT22;3155;49.940;8.450;2022-08-19T13:18:46;32.40;88.40
6244;DHT22;3155;49.940;8.450;2022-08-19T13:21:24;32.30;89.10
6244;DHT22;3155;49.940;8.450;2022-08-19T13:23:52;32.00;89.00
6244;DHT22;3155;49.940;8.450;2022-08-19T13:26:22;32.40;89.00
6244;DHT22;3155;49.940;8.450;2022-08-19T13:28:49;33.40;87.60
6244;DHT22;3155;49.940;8.450;2022-08-19T13:31:36;33.60;87.10
6244;DHT22;3155;49.940;8.450;2022-08-19T13:34:33;33.90;85.70
6244;DHT22;3155;49.940;8.450;2022-08-19T13:37:03;33.60;86.40
6244;DHT22;3155;49.940;8.450;2022-08-19T13:39:31;33.00;86.70
6244;DHT22;3155;49.940;8.450;2022-08-19T13:41:59;32.60;88.30
6244;DHT22;3155;49.940;8.450;2022-08-19T13:44:27;32.40;88.40
6244;DHT22;3155;49.940;8.450;2022-08-19T13:47:04;32.40;89.40
6244;DHT22;3155;49.940;8.450;2022-08-19T13:49:36;32.30;88.80
6244;DHT22;3155;49.940;8.450;2022-08-19T13:52:04;31.90;88.60
6244;DHT22;3155;49.940;8.450;2022-08-19T13:54:37;31.20;89.70
6244;DHT22;3155;49.940;8.450;2022-08-19T13:57:04;30.70;90.40
6244;DHT22;3155;49.940;8.450;2022-08-19T13:59:34;30.30;90.50
6244;DHT22;3155;49.940;8.450;2022-08-19T14:02:01;30.10;90.60
6244;DHT22;3155;49.940;8.450;2022-08-19T14:04:28;30.00;91.10
6244;DHT22;3155;49.940;8.450;2022-08-19T14:06:55;30.20;91.20
6244;DHT22;3155;49.940;8.450;2022-08-19T14:09:23;30.90;90.90
6244;DHT22;3155;49.940;8.450;2022-08-19T14:11:50;31.20;90.30
6244;DHT22;3155;49.940;8.450;2022-08-19T14:14:17;30.80;90.20
6244;DHT22;3155;49.940;8.450;2022-08-19T14:16:44;30.10;90.60
6244;DHT22;3155;49.940;8.450;2022-08-19T14:19:11;29.70;91.10
6244;DHT22;3155;49.940;8.450;2022-08-19T14:21:40;29.40;91.30
6244;DHT22;3155;49.940;8.450;2022-08-19T14:24:08;29.40;91.00
6244;DHT22;3155;49.940;8.450;2022-08-19T14:26:37;30.10;90.50
6244;DHT22;3155;49.940;8.450;2022-08-19T14:29:05;31.20;89.00
6244;DHT22;3155;49.940;8.450;2022-08-19T14:31:31;32.10;88.00
6244;DHT22;3155;49.940;8.450;2022-08-19T14:33:58;33.10;87.20
6244;DHT22;3155;49.940;8.450;2022-08-19T14:36:25;33.70;87.00
6244;DHT22;3155;49.940;8.450;2022-08-19T14:38:53;33.80;85.30
6244;DHT22;3155;49.940;8.450;2022-08-19T14:41:22;33.90;85.50
6244;DHT22;3155;49.940;8.450;2022-08-19T14:43:51;34.40;84.70
6244;DHT22;3155;49.940;8.450;2022-08-19T14:46:21;34.80;83.90
6244;DHT22;3155;49.940;8.450;2022-08-19T14:48:49;35.60;83.80
6244;DHT22;3155;49.940;8.450;2022-08-19T14:51:18;36.30;83.30
6244;DHT22;3155;49.940;8.450;2022-08-19T14:53:46;36.30;82.70
6244;DHT22;3155;49.940;8.450;2022-08-19T14:56:21;36.10;81.70
6244;DHT22;3155;49.940;8.450;2022-08-19T14:58:51;36.00;80.80
6244;DHT22;3155;49.940;8.450;2022-08-19T15:01:19;35.50;81.30
6244;DHT22;3155;49.940;8.450;2022-08-19T15:03:47;34.90;81.10
6244;DHT22;3155;49.940;8.450;2022-08-19T15:06:15;34.40;82.10
6244;DHT22;3155;49.940;8.450;2022-08-19T15:08:42;33.80;82.20
6244;DHT22;3155;49.940;8.450;2022-08-19T15:11:13;33.00;82.60
6244;DHT22;3155;49.940;8.450;2022-08-19T15:13:42;32.20;83.30
6244;DHT22;3155;49.940;8.450;2022-08-19T15:16:10;31.70;84.90
6244;DHT22;3155;49.940;8.450;2022-08-19T15:18:44;31.60;85.10
6244;DHT22;3155;49.940;8.450;2022-08-19T15:21:13;31.80;85.50
6244;DHT22;3155;49.940;8.450;2022-08-19T15:23:53;32.20;85.50
6244;DHT22;3155;49.940;8.450;2022-08-19T15:26:21;33.10;83.70
6244;DHT22;3155;49.940;8.450;2022-08-19T15:28:48;33.70;83.20
6244;DHT22;3155;49.940;8.450;2022-08-19T15:31:18;34.20;83.40
6244;DHT22;3155;49.940;8.450;2022-08-19T15:33:54;35.40;81.60
6244;DHT22;3155;49.940;8.450;2022-08-19T15:36:24;36.20;80.60
6244;DHT22;3155;49.940;8.450;2022-08-19T15:38:53;36.50;79.60
6244;DHT22;3155;49.940;8.450;2022-08-19T15:41:26;36.50;79.50
6244;DHT22;3155;49.940;8.450;2022-08-19T15:43:56;35.90;79.80
6244;DHT22;3155;49.940;8.450;2022-08-19T15:46:27;36.30;79.80
6244;DHT22;3155;49.940;8.450;2022-08-19T15:48:55;36.80;79.30
6244;DHT22;3155;49.940;8.450;2022-08-19T15:51:27;37.20;76.80
6244;DHT22;3155;49.940;8.450;2022-08-19T15:53:54;37.10;76.70
6244;DHT22;3155;49.940;8.450;2022-08-19T15:56:21;36.60;76.90
6244;DHT22;3155;49.940;8.450;2022-08-19T15:58:52;35.50;78.80
6244;DHT22;3155;49.940;8.450;2022-08-19T16:01:38;34.30;79.90
6244;DHT22;3155;49.940;8.450;2022-08-19T16:04:24;33.80;81.50
6244;DHT22;3155;49.940;8.450;2022-08-19T16:07:09;34.10;81.30
6244;DHT22;3155;49.940;8.450;2022-08-19T16:09:38;34.90;80.50
6244;DHT22;3155;49.940;8.450;2022-08-19T16:12:05;34.70;80.30
6244;DHT22;3155;49.940;8.450;2022-08-19T16:14:33;34.20;81.80
6244;DHT22;3155;49.940;8.450;2022-08-19T16:17:03;33.60;81.60
6244;DHT22;3155;49.940;8.450;2022-08-19T16:19:33;32.60;83.40
6244;DHT22;3155;49.940;8.450;2022-08-19T16:22:03;31.90;84.60
6244;DHT22;3155;49.940;8.450;2022-08-19T16:24:31;31.40;85.50
6244;DHT22;3155;49.940;8.450;2022-08-19T16:27:04;31.40;85.80
6244;DHT22;3155;49.940;8.450;2022-08-19T16:29:34;31.30;86.40
6244;DHT22;3155;49.940;8.450;2022-08-19T16:32:08;31.10;86.00
6244;DHT22;3155;49.940;8.450;2022-08-19T16:34:39;30.90;86.60